Lawton Fort Sill Regional Airport
KLAW : now visible

Airfield :











YOU CAN JOIN US ON...

 
LOGIN :

Register | Disclaimer

   EN    FR    IT 

 









Legend :    VFR   Marginal VFR   IFR   Intensive IFR   Very Intensive IFR
Visi :
Ceiling :
>= 8 km
>= 3000ft
5 to 8 km
1000 to 3000 ft
1500m to 5 km
500 to 1000 ft
800 to 1500m
200 to 500 ft
< 800m
< 200 ft
Symbols :   Thunderstorms  Fog  Heavy snow  Heavy precipitations  Wind > 20 kt






- Airport Elevation : 1110 ft


KLAW - Lawton Fort Sill Regional

CURRENT METAR :
  • 131453Z 17012G20KT 10SM CLR M01/M08 A3015 RMK AO2 SLP222 T10061083 56008

EXPIRED METARs :
  • 131353Z 16007KT 10SM CLR M03/M08 A3016 RMK AO2 SLP225 T10331083
  • 131253Z AUTO 16008KT 10SM CLR M04/M09 A3016 RMK AO2 SLP226 T10441089

TAF KLAW
Valid from the 13 at 12:00 until the 14 at 12:00 UTC


131134Z 1312/1412 16012KT P6SM SCT250
FM131300 17015G25KT P6SM FEW250
FM132300 16004KT P6SM SKC
FM140500 35004KT P6SM SCT250



MET'MAP, your aeronautical weather chart ! - Copyright ORBIFLY December 2007 - Disclaimer

ORBIFLY MET'MAP TEAM :

Programming & Development : Alexandra Zaïnal
Concept & Development : Baudouin d'Aumeries
Co-Development & Prog : Marc-Olivier Méhu
Technical & hardware support : Manuel Goepfert

Contact : metmap@orbifly.com




SOURCES & CREDITS :

   NOAA       Earth
Advisory